Nearby METAR Reports

 

LIRQ - Firenze, Italy
Distance from station: NNO 20km
aktuell: 15/08/2018 00:20
NOT Current
klar
klar
 Wind von varies
Wind: varies 4 km/h
Temperatur: 20°C
Taupunkt: 18°C
Luftfeuchte: 88%
Luftdruck: 1013 hPa
Zusammenfassung: klar
Visibility: greater than 10 km
2018/08/14 22:20 LIRQ 142220Z VRB02KT CAVOK 20/18 Q1013
LIRP - Pisa, Italy
Distance from station: W 55km
aktuell: 15/08/2018 01:15
klar
klar
 Wind von O
Wind: O 7 km/h
Temperatur: 20°C
Taupunkt: 18°C
Luftfeuchte: 88%
Luftdruck: 1013 hPa
Zusammenfassung: klar
Visibility: greater than 10 km
2018/08/14 23:15 LIRP 142315Z 10004KT CAVOK 20/18 Q1013 NOSIG
 
LIVC - Monte Cimone, Italy
Distance from station: NNW 69km
aktuell: 15/08/2018 00:55
sehr leichter Niederschlag, Fog
sehr leichter Niederschlag, Fog
 Wind von N
Wind: N 37 km/h, Windböen: 56 km/h
Temperatur: 9°C
Wind Chill: 4°C
Taupunkt: 9°C
Luftfeuchte: 100%
Luftdruck: 1022 hPa
Zusammenfassung: sehr leichter Niederschlag, Fog
Visibility: 0 km
2018/08/14 22:55 LIVC 142255Z 01020G30KT 0000 -RA FG VV/// 09/09 Q1022 RMK MON INVIS VAL INVIS VIS MIN 0000
LIRS - Grosseto, Italy
Distance from station: S 98km
aktuell: 15/08/2018 00:55
teilweise bewölkt
teilweise bewölkt
 Wind von ONO
Wind: ONO 11 km/h
Temperatur: 20°C
Taupunkt: 19°C
Luftfeuchte: 94%
Luftdruck: 1012 hPa
Clouds: teilweise bewölkt
Visibility: 10 km
Cloud details: teilweise bewölkt 610 m
2018/08/14 22:55 LIRS 142255Z 07006KT 9999 SCT020 20/19 Q1012